createdAt,value
2023-02-23T00:01:56.524Z,12.90
2023-02-23T00:04:24.272Z,14.97
2023-02-23T00:06:52.444Z,15.23
2023-02-23T00:09:25.796Z,14.93
2023-02-23T00:11:55.386Z,13.77
2023-02-23T00:14:27.460Z,12.17
2023-02-23T00:16:59.854Z,12.30
2023-02-23T00:19:29.719Z,13.03
2023-02-23T00:21:58.804Z,12.20
2023-02-23T00:24:31.444Z,13.10
2023-02-23T00:26:58.476Z,13.30
2023-02-23T00:29:25.400Z,12.43
2023-02-23T00:31:52.776Z,13.07
2023-02-23T00:34:21.712Z,10.93
2023-02-23T00:36:56.117Z,12.80
2023-02-23T00:39:28.846Z,10.40
2023-02-23T00:41:56.556Z,14.80
2023-02-23T00:44:24.257Z,13.70
2023-02-23T00:46:52.220Z,12.50
2023-02-23T00:49:20.781Z,11.37
2023-02-23T00:51:47.983Z,13.17
2023-02-23T00:54:16.244Z,14.90
2023-02-23T00:56:43.407Z,13.57
2023-02-23T00:59:11.108Z,13.97
2023-02-23T01:01:38.742Z,13.40
2023-02-23T01:04:07.330Z,12.90
2023-02-23T01:06:37.459Z,18.33
2023-02-23T01:09:28.508Z,16.27
2023-02-23T01:11:56.541Z,16.30
2023-02-23T01:14:24.580Z,15.27
2023-02-23T01:16:51.405Z,17.77
2023-02-23T01:19:18.090Z,14.13
2023-02-23T01:21:44.909Z,14.37
2023-02-23T01:24:13.104Z,16.33
2023-02-23T01:26:42.845Z,12.37
2023-02-23T01:29:15.119Z,15.60
2023-02-23T01:31:45.058Z,14.47
2023-02-23T01:34:13.893Z,16.20
2023-02-23T01:36:42.668Z,16.60
2023-02-23T01:39:13.007Z,14.97
2023-02-23T01:41:42.337Z,14.57
2023-02-23T01:44:31.868Z,14.83
2023-02-23T01:46:58.562Z,15.27
2023-02-23T01:49:28.608Z,14.00
2023-02-23T01:52:04.789Z,12.90
2023-02-23T01:54:36.230Z,13.50
2023-02-23T01:57:07.745Z,14.40
2023-02-23T01:59:44.693Z,13.50
2023-02-23T02:02:13.292Z,16.03
2023-02-23T02:04:45.144Z,18.73
2023-02-23T02:07:18.415Z,23.33
2023-02-23T02:10:06.259Z,18.63
2023-02-23T02:12:33.439Z,16.17
2023-02-23T02:15:00.770Z,20.73
2023-02-23T02:18:23.411Z,15.10
2023-02-23T02:21:14.567Z,17.63
2023-02-23T02:24:02.849Z,16.53
2023-02-23T02:26:58.469Z,17.33
2023-02-23T02:29:49.266Z,14.97
2023-02-23T02:32:19.035Z,17.03
2023-02-23T02:35:02.238Z,16.80
2023-02-23T02:37:44.178Z,16.67
2023-02-23T02:40:28.449Z,16.70
2023-02-23T02:43:13.002Z,15.60
2023-02-23T02:45:55.075Z,16.20
2023-02-23T02:48:38.552Z,15.13
2023-02-23T02:51:05.277Z,20.33
2023-02-23T02:53:49.932Z,17.60
2023-02-23T02:56:19.831Z,18.33
2023-02-23T02:58:50.031Z,19.30
2023-02-23T03:01:36.645Z,18.13
2023-02-23T03:04:40.878Z,17.57
2023-02-23T03:08:08.746Z,18.83
2023-02-23T03:11:00.195Z,15.23
2023-02-23T03:14:00.456Z,20.73
2023-02-23T03:17:10.057Z,17.67
2023-02-23T03:20:03.078Z,17.17
2023-02-23T03:22:56.543Z,15.33
2023-02-23T03:25:49.998Z,18.60
2023-02-23T03:28:49.857Z,20.83
2023-02-23T03:31:50.191Z,19.07
2023-02-23T03:34:47.239Z,18.30
2023-02-23T03:37:38.203Z,19.57
2023-02-23T03:40:44.975Z,19.30
2023-02-23T03:43:43.781Z,19.63
2023-02-23T03:46:32.753Z,17.03
2023-02-23T03:49:22.614Z,19.00
2023-02-23T03:52:13.991Z,18.70
2023-02-23T03:55:08.138Z,17.97
2023-02-23T03:57:55.052Z,18.00
2023-02-23T04:00:48.507Z,18.37
2023-02-23T04:03:36.393Z,17.87
2023-02-23T04:06:25.720Z,16.90
2023-02-23T04:09:12.185Z,21.40
2023-02-23T04:12:15.328Z,16.57
2023-02-23T04:14:43.965Z,19.00
2023-02-23T04:17:12.087Z,18.80
2023-02-23T04:19:38.697Z,17.67
2023-02-23T04:22:05.345Z,21.37
2023-02-23T04:24:31.984Z,20.33
2023-02-23T04:26:58.668Z,21.60
2023-02-23T04:29:25.259Z,20.27
2023-02-23T04:31:52.115Z,22.03
2023-02-23T04:34:18.756Z,20.97
2023-02-23T04:36:45.401Z,19.47
2023-02-23T04:39:11.998Z,18.40
2023-02-23T04:41:38.635Z,17.43
2023-02-23T04:44:05.302Z,19.23
2023-02-23T04:46:32.289Z,21.70
2023-02-23T04:48:59.128Z,21.03
2023-02-23T04:51:30.707Z,16.30
2023-02-23T04:53:57.725Z,18.80
2023-02-23T04:56:24.456Z,17.90
2023-02-23T04:58:51.351Z,20.50
2023-02-23T05:01:18.406Z,17.83
2023-02-23T05:03:45.215Z,20.33
2023-02-23T05:06:12.646Z,20.40
2023-02-23T05:08:40.659Z,20.00
2023-02-23T05:11:07.760Z,23.27
2023-02-23T05:13:34.698Z,19.10
2023-02-23T05:16:01.441Z,22.40
2023-02-23T05:18:28.377Z,20.10
2023-02-23T05:21:02.757Z,17.83
2023-02-23T05:23:29.572Z,21.30
2023-02-23T05:26:01.283Z,21.83
2023-02-23T05:28:27.897Z,19.23
2023-02-23T05:30:54.615Z,20.90
2023-02-23T05:33:21.778Z,20.87
2023-02-23T05:35:49.221Z,17.27
2023-02-23T05:38:15.828Z,23.07
2023-02-23T05:40:42.564Z,20.73
2023-02-23T05:43:09.163Z,20.40
2023-02-23T05:45:41.308Z,19.23
2023-02-23T05:48:08.658Z,19.03
2023-02-23T05:50:35.503Z,19.37
2023-02-23T05:53:02.330Z,21.40
2023-02-23T05:55:29.000Z,23.50
2023-02-23T05:57:55.844Z,19.80
2023-02-23T06:00:22.795Z,22.87
2023-02-23T06:02:52.254Z,21.40
2023-02-23T06:05:19.340Z,19.73
2023-02-23T06:07:46.196Z,20.87
2023-02-23T06:10:12.798Z,22.73
2023-02-23T06:12:39.418Z,20.50
2023-02-23T06:15:06.851Z,19.60
2023-02-23T06:17:33.693Z,22.43
2023-02-23T06:20:01.969Z,18.70
2023-02-23T06:22:28.630Z,20.53
2023-02-23T06:24:55.290Z,18.67
2023-02-23T06:27:21.867Z,24.23
2023-02-23T06:29:48.507Z,18.43
2023-02-23T06:32:15.267Z,19.97
2023-02-23T06:34:41.945Z,19.47
2023-02-23T06:37:09.936Z,19.90
2023-02-23T06:39:36.638Z,23.00
2023-02-23T06:42:03.509Z,20.47
2023-02-23T06:44:30.220Z,19.77
2023-02-23T06:46:57.571Z,20.80
2023-02-23T06:49:24.320Z,19.53
2023-02-23T06:51:50.944Z,19.50
2023-02-23T06:54:17.596Z,21.63
2023-02-23T06:56:44.195Z,26.10
2023-02-23T06:59:10.801Z,19.63
2023-02-23T07:01:37.686Z,23.10
2023-02-23T07:04:05.442Z,26.40
2023-02-23T07:06:32.124Z,22.37
2023-02-23T07:08:58.992Z,26.17
2023-02-23T07:11:25.625Z,23.63
2023-02-23T07:13:52.299Z,25.33
2023-02-23T07:16:19.202Z,21.77
2023-02-23T07:18:45.861Z,26.53
2023-02-23T07:21:12.513Z,25.63
2023-02-23T07:23:39.153Z,30.20
2023-02-23T07:26:05.854Z,25.63
2023-02-23T07:28:32.488Z,26.13
2023-02-23T07:30:59.236Z,30.30
2023-02-23T07:33:25.953Z,34.27
2023-02-23T07:35:52.625Z,28.50
2023-02-23T07:38:23.080Z,28.60
2023-02-23T07:40:50.953Z,38.23
2023-02-23T07:43:17.749Z,27.40
2023-02-23T07:45:46.506Z,27.07
2023-02-23T07:48:13.391Z,23.83
2023-02-23T07:50:41.705Z,28.53
2023-02-23T07:53:08.453Z,27.30
2023-02-23T07:55:35.181Z,24.50
2023-02-23T07:58:01.929Z,26.73
2023-02-23T08:00:28.542Z,26.47
2023-02-23T08:02:55.175Z,27.30
2023-02-23T08:05:21.884Z,35.27
2023-02-23T08:07:49.690Z,35.57
2023-02-23T08:10:16.466Z,36.83
2023-02-23T08:12:43.667Z,39.70
2023-02-23T08:15:11.040Z,40.33
2023-02-23T08:17:38.713Z,45.60
2023-02-23T08:20:09.896Z,41.73
2023-02-23T08:22:48.529Z,46.40
2023-02-23T08:25:16.544Z,36.00
2023-02-23T08:27:43.248Z,35.87
2023-02-23T08:30:12.735Z,35.70
2023-02-23T08:32:39.489Z,37.13
2023-02-23T08:35:07.765Z,34.00
2023-02-23T08:37:34.392Z,32.03
2023-02-23T08:40:01.008Z,30.27
2023-02-23T08:42:31.224Z,32.77
2023-02-23T08:44:59.138Z,32.70
2023-02-23T08:47:25.831Z,31.00
2023-02-23T08:49:54.389Z,30.73
2023-02-23T08:52:21.599Z,34.03
2023-02-23T08:54:48.303Z,33.20
2023-02-23T08:57:15.239Z,30.77
2023-02-23T08:59:41.951Z,29.60
2023-02-23T09:02:16.776Z,29.47
2023-02-23T09:04:43.783Z,35.47
2023-02-23T09:07:16.244Z,33.37
2023-02-23T09:09:43.117Z,33.37
2023-02-23T09:12:11.272Z,32.57
2023-02-23T09:14:38.042Z,33.67
2023-02-23T09:17:04.691Z,32.77
2023-02-23T09:19:31.349Z,35.60
2023-02-23T09:21:58.003Z,31.73
2023-02-23T09:24:24.661Z,34.57
2023-02-23T09:26:53.442Z,32.87
2023-02-23T09:29:20.188Z,35.60
2023-02-23T09:31:46.994Z,38.23
2023-02-23T09:34:13.746Z,36.20
2023-02-23T09:36:40.423Z,31.53
2023-02-23T09:39:07.063Z,33.00
2023-02-23T09:41:48.973Z,36.00
2023-02-23T09:44:21.526Z,35.27
2023-02-23T09:47:05.358Z,35.97
2023-02-23T09:49:38.532Z,32.17
2023-02-23T09:52:10.676Z,36.20
2023-02-23T09:54:37.381Z,32.27
2023-02-23T09:57:12.137Z,35.17
2023-02-23T09:59:39.756Z,34.23
2023-02-23T10:02:06.549Z,36.27
2023-02-23T10:05:13.273Z,35.40
2023-02-23T10:08:24.901Z,39.27
2023-02-23T10:11:04.726Z,39.90
2023-02-23T10:13:51.630Z,39.30
2023-02-23T10:16:27.483Z,37.43
2023-02-23T10:19:01.998Z,33.10
2023-02-23T10:21:36.048Z,37.90
2023-02-23T10:24:46.874Z,37.17
2023-02-23T10:27:18.413Z,38.97
2023-02-23T10:29:56.422Z,38.20
2023-02-23T10:32:41.661Z,43.53
2023-02-23T10:35:14.219Z,36.33
2023-02-23T10:37:40.913Z,36.57
2023-02-23T10:40:14.049Z,36.30
2023-02-23T10:42:40.734Z,38.63
2023-02-23T10:45:18.672Z,37.87
2023-02-23T10:47:45.968Z,37.03
2023-02-23T10:50:14.207Z,34.37
2023-02-23T10:52:45.511Z,35.90
2023-02-23T10:55:27.435Z,33.73
2023-02-23T10:58:19.102Z,30.43
2023-02-23T11:01:01.159Z,29.23
2023-02-23T11:03:45.737Z,26.80
2023-02-23T11:06:31.559Z,27.43
2023-02-23T11:08:58.447Z,19.13
2023-02-23T11:11:29.206Z,23.77
2023-02-23T11:13:57.425Z,23.87
2023-02-23T11:16:29.007Z,25.17
2023-02-23T11:18:59.207Z,25.87
2023-02-23T11:21:33.387Z,26.80
2023-02-23T11:24:22.650Z,28.27
2023-02-23T11:26:52.496Z,24.43
2023-02-23T11:29:26.885Z,25.10
2023-02-23T11:31:58.320Z,27.97
2023-02-23T11:34:33.453Z,24.17
2023-02-23T11:37:05.356Z,25.93
2023-02-23T11:39:33.203Z,24.67
2023-02-23T11:42:19.261Z,26.50
2023-02-23T11:45:04.971Z,23.03
2023-02-23T11:47:35.244Z,24.10
2023-02-23T11:50:03.782Z,21.37
2023-02-23T11:52:31.241Z,22.23
2023-02-23T11:55:01.752Z,21.00
2023-02-23T11:57:33.562Z,21.43
2023-02-23T12:00:11.750Z,23.73
2023-02-23T12:02:51.901Z,23.20
2023-02-23T12:05:21.340Z,24.77
2023-02-23T12:07:54.493Z,22.60
2023-02-23T12:10:42.334Z,26.53
2023-02-23T12:13:30.263Z,20.03
2023-02-23T12:16:02.564Z,19.03
2023-02-23T12:18:38.397Z,21.20
2023-02-23T12:21:19.553Z,19.10
2023-02-23T12:23:50.814Z,17.67
2023-02-23T12:26:22.663Z,17.97
2023-02-23T12:29:02.426Z,17.57
2023-02-23T12:31:47.769Z,21.07
2023-02-23T12:34:30.474Z,21.67
2023-02-23T12:37:09.258Z,17.40
2023-02-23T12:39:41.610Z,18.17
2023-02-23T12:42:51.432Z,17.90
2023-02-23T12:45:28.319Z,18.67
2023-02-23T12:48:08.845Z,18.57
2023-02-23T12:50:51.679Z,17.73
2023-02-23T12:53:37.986Z,16.40
2023-02-23T12:56:10.691Z,18.77
2023-02-23T12:58:57.250Z,16.27
2023-02-23T13:01:36.241Z,17.40
2023-02-23T13:04:24.160Z,18.80
2023-02-23T13:07:03.781Z,16.83
2023-02-23T13:09:47.327Z,19.00
2023-02-23T13:12:17.439Z,16.00
2023-02-23T13:15:21.305Z,16.87
2023-02-23T13:18:23.670Z,16.73
2023-02-23T13:20:59.296Z,12.90
2023-02-23T13:23:44.671Z,15.97
2023-02-23T13:26:25.448Z,15.03
2023-02-23T13:28:58.616Z,12.60
2023-02-23T13:31:31.706Z,14.83
2023-02-23T13:34:01.601Z,11.20
2023-02-23T13:36:31.034Z,11.77
2023-02-23T13:39:39.819Z,10.63
2023-02-23T13:42:48.480Z,11.00
2023-02-23T13:45:27.870Z,12.17
2023-02-23T13:48:00.315Z,11.23
2023-02-23T13:50:31.113Z,12.50
2023-02-23T13:53:04.901Z,9.87
2023-02-23T13:55:51.208Z,8.60
2023-02-23T13:58:27.590Z,11.20
2023-02-23T14:01:08.728Z,9.70
2023-02-23T14:04:00.324Z,9.90
2023-02-23T14:06:30.727Z,11.83
2023-02-23T14:09:13.219Z,10.43
2023-02-23T14:11:46.935Z,12.30
2023-02-23T14:14:34.611Z,14.00
2023-02-23T14:17:17.443Z,12.07
2023-02-23T14:20:06.527Z,12.30
2023-02-23T14:22:37.933Z,11.37
2023-02-23T14:25:35.486Z,12.17
2023-02-23T14:28:06.952Z,9.87
2023-02-23T14:30:50.976Z,10.37
2023-02-23T14:33:48.508Z,10.97
2023-02-23T14:36:24.229Z,12.07
2023-02-23T14:38:56.472Z,11.63
2023-02-23T14:41:51.083Z,9.87
2023-02-23T14:44:42.383Z,10.90
2023-02-23T14:47:14.000Z,9.97
2023-02-23T14:50:01.310Z,11.90
2023-02-23T14:52:33.423Z,9.20
2023-02-23T14:55:12.023Z,11.33
2023-02-23T14:57:43.509Z,10.13
2023-02-23T15:00:16.555Z,8.67
2023-02-23T15:03:00.945Z,9.20
2023-02-23T15:05:31.467Z,12.03
2023-02-23T15:08:10.702Z,12.90
2023-02-23T15:10:40.130Z,11.13
2023-02-23T15:13:17.410Z,11.37
2023-02-23T15:15:45.954Z,10.50
2023-02-23T15:18:30.851Z,11.40
2023-02-23T15:20:57.607Z,12.60
2023-02-23T15:23:24.527Z,15.90
2023-02-23T15:25:52.730Z,16.03
2023-02-23T15:28:29.504Z,14.43
2023-02-23T15:31:00.684Z,15.30
2023-02-23T15:33:30.311Z,15.20
2023-02-23T15:36:15.059Z,19.80
2023-02-23T15:38:46.455Z,19.50
2023-02-23T15:41:23.146Z,16.47
2023-02-23T15:43:50.026Z,18.90
2023-02-23T15:46:26.607Z,17.33
2023-02-23T15:48:58.206Z,17.50
2023-02-23T15:51:36.430Z,15.23
2023-02-23T15:54:15.208Z,14.50
2023-02-23T15:56:46.781Z,17.03
2023-02-23T15:59:23.861Z,18.07
2023-02-23T16:01:54.129Z,16.17
2023-02-23T16:04:27.672Z,17.07
2023-02-23T16:07:17.847Z,16.27
2023-02-23T16:09:48.826Z,20.13
2023-02-23T16:12:37.184Z,14.60
2023-02-23T16:15:29.559Z,16.63
2023-02-23T16:18:05.315Z,19.00
2023-02-23T16:20:41.386Z,18.17
2023-02-23T16:23:34.552Z,27.93
2023-02-23T16:26:18.415Z,19.07
2023-02-23T16:28:46.568Z,21.73
2023-02-23T16:31:19.982Z,18.07
2023-02-23T16:33:57.050Z,12.40
2023-02-23T16:36:33.397Z,15.67
2023-02-23T16:39:02.874Z,14.27
2023-02-23T16:41:31.732Z,16.50
2023-02-23T16:44:03.853Z,10.07
2023-02-23T16:46:33.632Z,14.23
2023-02-23T16:49:10.069Z,17.63
2023-02-23T16:51:39.827Z,11.90
2023-02-23T16:54:08.334Z,12.87
2023-02-23T16:56:35.799Z,15.03
2023-02-23T16:59:04.080Z,15.17
2023-02-23T17:01:30.858Z,15.10
2023-02-23T17:03:59.063Z,13.30
2023-02-23T17:06:28.746Z,12.27
2023-02-23T17:08:58.834Z,11.20
2023-02-23T17:11:26.610Z,10.50
2023-02-23T17:13:53.368Z,15.30
2023-02-23T17:16:20.448Z,14.87
2023-02-23T17:18:47.682Z,12.87
2023-02-23T17:21:23.919Z,12.87
2023-02-23T17:23:52.113Z,15.33
2023-02-23T17:26:23.473Z,15.10
2023-02-23T17:28:50.844Z,16.77
2023-02-23T17:31:19.789Z,13.47
2023-02-23T17:33:47.813Z,13.27
2023-02-23T17:36:17.572Z,16.07
2023-02-23T17:38:45.024Z,19.43
2023-02-23T17:41:19.957Z,18.70
2023-02-23T17:43:47.236Z,15.27
2023-02-23T17:46:14.230Z,14.47
2023-02-23T17:48:44.398Z,14.33
2023-02-23T17:51:12.708Z,12.27
2023-02-23T17:53:40.744Z,16.37
2023-02-23T17:56:09.040Z,18.30
2023-02-23T17:58:36.899Z,15.47
2023-02-23T18:01:08.896Z,17.57
2023-02-23T18:03:36.941Z,19.60
2023-02-23T18:06:06.456Z,17.93
2023-02-23T18:08:33.320Z,16.33
2023-02-23T18:11:00.198Z,19.10
2023-02-23T18:13:28.548Z,18.63
2023-02-23T18:16:00.967Z,17.03
2023-02-23T18:18:28.384Z,19.33
2023-02-23T18:20:58.067Z,17.70
2023-02-23T18:23:30.672Z,20.80
2023-02-23T18:26:08.703Z,17.17
2023-02-23T18:28:35.873Z,20.40
2023-02-23T18:31:03.186Z,19.50
2023-02-23T18:33:31.454Z,18.93
2023-02-23T18:35:58.851Z,16.43
2023-02-23T18:38:25.635Z,18.50
2023-02-23T18:40:52.579Z,17.87
2023-02-23T18:43:19.305Z,16.17
2023-02-23T18:45:45.976Z,19.67
2023-02-23T18:48:14.249Z,16.23
2023-02-23T18:50:41.521Z,13.63
2023-02-23T18:53:10.895Z,14.63
2023-02-23T18:55:38.745Z,16.47
2023-02-23T18:58:08.795Z,19.00
2023-02-23T19:00:40.053Z,21.00
2023-02-23T19:03:07.389Z,25.07
2023-02-23T19:05:36.200Z,20.80
2023-02-23T19:08:03.596Z,18.50
2023-02-23T19:10:35.241Z,16.50
2023-02-23T19:13:03.721Z,16.10
2023-02-23T19:15:31.030Z,13.30
2023-02-23T19:17:57.779Z,14.07
2023-02-23T19:20:24.470Z,17.00
2023-02-23T19:22:51.169Z,19.20
2023-02-23T19:25:17.970Z,16.50
2023-02-23T19:27:44.703Z,15.37
2023-02-23T19:30:14.933Z,18.83
2023-02-23T19:32:42.690Z,16.80
2023-02-23T19:35:14.468Z,16.63
2023-02-23T19:37:47.549Z,22.53
2023-02-23T19:40:20.555Z,22.13
2023-02-23T19:42:49.539Z,20.43
2023-02-23T19:45:17.721Z,23.30
2023-02-23T19:47:44.499Z,19.50
2023-02-23T19:50:18.973Z,19.00
2023-02-23T19:52:47.236Z,17.07
2023-02-23T19:55:15.185Z,20.70
2023-02-23T19:57:43.624Z,19.83
2023-02-23T20:00:11.982Z,22.30
2023-02-23T20:02:42.660Z,19.43
2023-02-23T20:05:16.092Z,21.17
2023-02-23T20:07:43.491Z,20.13
2023-02-23T20:10:13.810Z,19.30
2023-02-23T20:12:40.585Z,24.63
2023-02-23T20:15:08.320Z,14.80
2023-02-23T20:17:35.436Z,20.63
2023-02-23T20:20:06.695Z,26.07
2023-02-23T20:22:33.456Z,18.77
2023-02-23T20:25:00.357Z,17.37
2023-02-23T20:27:29.948Z,19.10
2023-02-23T20:30:00.673Z,11.13
2023-02-23T20:32:27.500Z,18.43
2023-02-23T20:34:54.538Z,13.87
2023-02-23T20:37:25.971Z,13.77
2023-02-23T20:39:52.780Z,19.70
2023-02-23T20:42:22.285Z,14.10
2023-02-23T20:44:48.962Z,13.20
2023-02-23T20:47:15.596Z,15.43
2023-02-23T20:49:44.534Z,15.00
2023-02-23T20:52:15.195Z,16.30
2023-02-23T20:54:42.060Z,12.50
2023-02-23T20:57:08.990Z,12.40
2023-02-23T20:59:43.023Z,12.23
2023-02-23T21:02:13.746Z,15.07
2023-02-23T21:04:42.372Z,15.63
2023-02-23T21:07:09.687Z,14.57
2023-02-23T21:09:42.427Z,11.97
2023-02-23T21:12:13.854Z,13.47
2023-02-23T21:14:43.453Z,49.30
2023-02-23T21:17:10.710Z,17.13
2023-02-23T21:19:39.163Z,14.40
2023-02-23T21:22:06.425Z,17.07
2023-02-23T21:24:37.614Z,17.47
2023-02-23T21:27:05.236Z,19.43
2023-02-23T21:29:33.206Z,16.83
2023-02-23T21:32:00.038Z,17.00
2023-02-23T21:34:26.881Z,13.23
2023-02-23T21:36:53.584Z,15.67
2023-02-23T21:39:21.468Z,19.37
2023-02-23T21:41:48.279Z,15.70
2023-02-23T21:44:14.962Z,19.20
2023-02-23T21:46:41.829Z,20.13
2023-02-23T21:49:09.638Z,16.87
2023-02-23T21:51:36.617Z,15.93
2023-02-23T21:54:04.049Z,18.63
2023-02-23T21:56:32.709Z,19.20
2023-02-23T21:58:59.782Z,17.10
2023-02-23T22:01:29.430Z,18.70
2023-02-23T22:03:57.362Z,16.23
2023-02-23T22:06:27.670Z,19.03
2023-02-23T22:08:54.924Z,20.10
2023-02-23T22:11:26.805Z,21.57
2023-02-23T22:14:05.132Z,17.87
2023-02-23T22:16:35.578Z,17.03
2023-02-23T22:19:06.716Z,19.23
2023-02-23T22:21:36.740Z,21.47
2023-02-23T22:24:05.406Z,19.13
2023-02-23T22:26:37.382Z,19.00
2023-02-23T22:29:09.764Z,19.57
2023-02-23T22:31:38.156Z,18.77
2023-02-23T22:34:06.293Z,18.50
2023-02-23T22:36:33.849Z,19.33
2023-02-23T22:39:10.889Z,18.07
2023-02-23T22:41:43.410Z,21.03
2023-02-23T22:44:16.829Z,17.83
2023-02-23T22:46:50.631Z,16.90
2023-02-23T22:49:19.669Z,22.13
2023-02-23T22:51:53.511Z,21.30
2023-02-23T22:54:23.648Z,19.40
2023-02-23T22:56:50.927Z,25.70
2023-02-23T22:59:20.184Z,24.20
2023-02-23T23:01:48.992Z,19.10
2023-02-23T23:04:16.249Z,18.30
2023-02-23T23:06:43.774Z,20.83
2023-02-23T23:09:12.148Z,19.07
2023-02-23T23:11:42.290Z,20.60
2023-02-23T23:14:10.380Z,18.20
2023-02-23T23:16:47.527Z,19.73
2023-02-23T23:19:23.759Z,20.77
2023-02-23T23:21:54.942Z,20.97
2023-02-23T23:24:24.206Z,25.40
2023-02-23T23:26:55.444Z,19.53
2023-02-23T23:29:23.632Z,22.53
2023-02-23T23:31:51.666Z,20.97
2023-02-23T23:34:21.578Z,23.33
2023-02-23T23:36:49.482Z,22.43
2023-02-23T23:39:17.925Z,23.90
2023-02-23T23:41:47.855Z,19.57
2023-02-23T23:44:23.636Z,20.40
2023-02-23T23:46:51.054Z,26.30
2023-02-23T23:49:20.544Z,23.20
2023-02-23T23:51:50.300Z,20.43
2023-02-23T23:54:23.544Z,22.80
2023-02-23T23:56:50.943Z,23.97
2023-02-23T23:59:21.230Z,20.27
